sensor_id;sensor_type;location;lat;lon;timestamp;P1;durP1;ratioP1;P2;durP2;ratioP2
60969;SDS011;46841;48.938;9.502;2022-12-15T00:00:41;99.00;;;37.90;;
60969;SDS011;46841;48.938;9.502;2022-12-15T00:03:25;96.97;;;37.50;;
60969;SDS011;46841;48.938;9.502;2022-12-15T00:06:09;98.25;;;37.15;;
60969;SDS011;46841;48.938;9.502;2022-12-15T00:08:53;97.45;;;35.40;;
60969;SDS011;46841;48.938;9.502;2022-12-15T00:11:37;91.57;;;35.55;;
60969;SDS011;46841;48.938;9.502;2022-12-15T00:14:20;85.90;;;33.83;;
60969;SDS011;46841;48.938;9.502;2022-12-15T00:17:04;88.22;;;35.08;;
60969;SDS011;46841;48.938;9.502;2022-12-15T00:19:48;85.07;;;34.70;;
60969;SDS011;46841;48.938;9.502;2022-12-15T00:22:32;85.85;;;32.22;;
60969;SDS011;46841;48.938;9.502;2022-12-15T00:25:16;97.13;;;35.90;;
60969;SDS011;46841;48.938;9.502;2022-12-15T00:28:00;91.68;;;36.55;;
60969;SDS011;46841;48.938;9.502;2022-12-15T00:30:44;87.53;;;34.47;;
60969;SDS011;46841;48.938;9.502;2022-12-15T00:33:28;84.43;;;34.97;;
60969;SDS011;46841;48.938;9.502;2022-12-15T00:36:11;81.07;;;32.78;;
60969;SDS011;46841;48.938;9.502;2022-12-15T00:38:55;90.78;;;33.92;;
60969;SDS011;46841;48.938;9.502;2022-12-15T00:41:20;85.53;;;35.03;;
60969;SDS011;46841;48.938;9.502;2022-12-15T00:43:46;94.88;;;35.60;;
60969;SDS011;46841;48.938;9.502;2022-12-15T00:46:11;84.15;;;33.38;;
60969;SDS011;46841;48.938;9.502;2022-12-15T00:48:56;90.65;;;33.03;;
60969;SDS011;46841;48.938;9.502;2022-12-15T00:51:21;83.85;;;33.92;;
60969;SDS011;46841;48.938;9.502;2022-12-15T00:54:05;82.18;;;31.50;;
60969;SDS011;46841;48.938;9.502;2022-12-15T00:56:49;80.18;;;33.03;;
60969;SDS011;46841;48.938;9.502;2022-12-15T00:59:33;79.72;;;33.28;;
60969;SDS011;46841;48.938;9.502;2022-12-15T01:02:17;84.65;;;31.85;;
60969;SDS011;46841;48.938;9.502;2022-12-15T01:05:01;80.40;;;32.35;;
60969;SDS011;46841;48.938;9.502;2022-12-15T01:07:44;87.32;;;33.83;;
60969;SDS011;46841;48.938;9.502;2022-12-15T01:10:28;79.18;;;32.33;;
60969;SDS011;46841;48.938;9.502;2022-12-15T01:13:12;88.35;;;33.08;;
60969;SDS011;46841;48.938;9.502;2022-12-15T01:15:56;79.47;;;33.13;;
60969;SDS011;46841;48.938;9.502;2022-12-15T01:18:40;78.03;;;31.40;;
60969;SDS011;46841;48.938;9.502;2022-12-15T01:21:24;82.05;;;32.03;;
60969;SDS011;46841;48.938;9.502;2022-12-15T01:23:49;78.78;;;32.10;;
60969;SDS011;46841;48.938;9.502;2022-12-15T01:26:15;76.20;;;31.95;;
60969;SDS011;46841;48.938;9.502;2022-12-15T01:28:40;89.05;;;33.65;;
60969;SDS011;46841;48.938;9.502;2022-12-15T01:31:09;86.45;;;34.53;;
60969;SDS011;46841;48.938;9.502;2022-12-15T01:33:35;82.30;;;33.55;;
60969;SDS011;46841;48.938;9.502;2022-12-15T01:36:01;82.82;;;33.00;;
60969;SDS011;46841;48.938;9.502;2022-12-15T01:38:27;80.70;;;31.80;;
60969;SDS011;46841;48.938;9.502;2022-12-15T01:40:57;82.93;;;34.10;;
60969;SDS011;46841;48.938;9.502;2022-12-15T01:43:24;82.05;;;33.22;;
60969;SDS011;46841;48.938;9.502;2022-12-15T01:48:37;77.05;;;30.25;;
60969;SDS011;46841;48.938;9.502;2022-12-15T01:51:06;71.90;;;28.15;;
60969;SDS011;46841;48.938;9.502;2022-12-15T01:53:36;70.78;;;30.30;;
60969;SDS011;46841;48.938;9.502;2022-12-15T01:56:03;73.97;;;30.65;;
60969;SDS011;46841;48.938;9.502;2022-12-15T01:58:29;80.38;;;30.80;;
60969;SDS011;46841;48.938;9.502;2022-12-15T02:00:54;78.45;;;31.48;;
60969;SDS011;46841;48.938;9.502;2022-12-15T02:03:20;86.80;;;34.83;;
60969;SDS011;46841;48.938;9.502;2022-12-15T02:05:46;87.05;;;33.53;;
60969;SDS011;46841;48.938;9.502;2022-12-15T02:08:11;91.63;;;34.65;;
60969;SDS011;46841;48.938;9.502;2022-12-15T02:10:51;94.80;;;37.15;;
60969;SDS011;46841;48.938;9.502;2022-12-15T02:15:53;91.30;;;33.50;;
60969;SDS011;46841;48.938;9.502;2022-12-15T02:20:54;86.10;;;34.72;;
60969;SDS011;46841;48.938;9.502;2022-12-15T02:31:03;89.65;;;35.00;;
60969;SDS011;46841;48.938;9.502;2022-12-15T02:33:50;80.45;;;31.83;;
60969;SDS011;46841;48.938;9.502;2022-12-15T02:38:42;70.73;;;28.70;;
60969;SDS011;46841;48.938;9.502;2022-12-15T02:43:51;81.95;;;32.75;;
60969;SDS011;46841;48.938;9.502;2022-12-15T02:46:25;90.93;;;34.63;;
60969;SDS011;46841;48.938;9.502;2022-12-15T02:49:05;83.68;;;33.78;;
60969;SDS011;46841;48.938;9.502;2022-12-15T02:59:24;91.63;;;34.40;;
60969;SDS011;46841;48.938;9.502;2022-12-15T03:01:52;78.45;;;32.30;;
60969;SDS011;46841;48.938;9.502;2022-12-15T03:04:20;86.47;;;33.17;;
60969;SDS011;46841;48.938;9.502;2022-12-15T03:06:52;78.07;;;33.03;;
60969;SDS011;46841;48.938;9.502;2022-12-15T03:09:17;85.70;;;35.65;;
60969;SDS011;46841;48.938;9.502;2022-12-15T03:11:42;85.90;;;33.50;;
60969;SDS011;46841;48.938;9.502;2022-12-15T03:14:08;90.55;;;34.65;;
60969;SDS011;46841;48.938;9.502;2022-12-15T03:16:33;91.28;;;34.58;;
60969;SDS011;46841;48.938;9.502;2022-12-15T03:18:58;95.03;;;35.58;;
60969;SDS011;46841;48.938;9.502;2022-12-15T03:21:24;72.32;;;31.25;;
60969;SDS011;46841;48.938;9.502;2022-12-15T03:23:49;88.28;;;35.10;;
60969;SDS011;46841;48.938;9.502;2022-12-15T03:26:14;77.30;;;31.10;;
60969;SDS011;46841;48.938;9.502;2022-12-15T03:28:40;78.85;;;33.17;;
60969;SDS011;46841;48.938;9.502;2022-12-15T03:31:06;80.43;;;31.70;;
60969;SDS011;46841;48.938;9.502;2022-12-15T03:33:32;73.40;;;31.23;;
60969;SDS011;46841;48.938;9.502;2022-12-15T03:35:57;84.78;;;34.33;;
60969;SDS011;46841;48.938;9.502;2022-12-15T03:38:24;86.85;;;34.45;;
60969;SDS011;46841;48.938;9.502;2022-12-15T03:40:49;78.65;;;32.30;;
60969;SDS011;46841;48.938;9.502;2022-12-15T03:43:14;81.38;;;32.90;;
60969;SDS011;46841;48.938;9.502;2022-12-15T03:45:40;82.30;;;32.97;;
60969;SDS011;46841;48.938;9.502;2022-12-15T03:48:05;80.30;;;33.22;;
60969;SDS011;46841;48.938;9.502;2022-12-15T03:50:30;83.50;;;32.75;;
60969;SDS011;46841;48.938;9.502;2022-12-15T03:52:59;86.05;;;33.20;;
60969;SDS011;46841;48.938;9.502;2022-12-15T03:55:25;72.95;;;29.85;;
60969;SDS011;46841;48.938;9.502;2022-12-15T04:00:18;73.13;;;26.27;;
60969;SDS011;46841;48.938;9.502;2022-12-15T04:02:44;76.75;;;28.95;;
60969;SDS011;46841;48.938;9.502;2022-12-15T04:05:20;79.10;;;27.63;;
60969;SDS011;46841;48.938;9.502;2022-12-15T04:07:46;66.35;;;25.15;;
60969;SDS011;46841;48.938;9.502;2022-12-15T04:10:11;72.28;;;25.70;;
60969;SDS011;46841;48.938;9.502;2022-12-15T04:12:37;71.03;;;27.02;;
60969;SDS011;46841;48.938;9.502;2022-12-15T04:15:05;70.15;;;25.42;;
60969;SDS011;46841;48.938;9.502;2022-12-15T04:17:31;69.80;;;26.47;;
60969;SDS011;46841;48.938;9.502;2022-12-15T04:19:57;74.45;;;27.02;;
60969;SDS011;46841;48.938;9.502;2022-12-15T04:22:44;66.30;;;25.42;;
60969;SDS011;46841;48.938;9.502;2022-12-15T04:25:14;69.75;;;25.45;;
60969;SDS011;46841;48.938;9.502;2022-12-15T04:27:58;65.43;;;23.35;;
60969;SDS011;46841;48.938;9.502;2022-12-15T04:30:50;66.93;;;23.75;;
60969;SDS011;46841;48.938;9.502;2022-12-15T04:33:35;66.50;;;23.73;;
60969;SDS011;46841;48.938;9.502;2022-12-15T04:36:19;66.18;;;24.08;;
60969;SDS011;46841;48.938;9.502;2022-12-15T04:39:03;61.50;;;23.65;;
60969;SDS011;46841;48.938;9.502;2022-12-15T04:41:48;66.82;;;23.88;;
60969;SDS011;46841;48.938;9.502;2022-12-15T04:44:31;63.50;;;24.50;;
60969;SDS011;46841;48.938;9.502;2022-12-15T04:47:15;59.15;;;22.17;;
60969;SDS011;46841;48.938;9.502;2022-12-15T04:49:59;63.83;;;23.60;;
60969;SDS011;46841;48.938;9.502;2022-12-15T04:52:43;59.92;;;23.88;;
60969;SDS011;46841;48.938;9.502;2022-12-15T04:55:27;60.22;;;22.83;;
60969;SDS011;46841;48.938;9.502;2022-12-15T04:58:11;62.85;;;24.15;;
60969;SDS011;46841;48.938;9.502;2022-12-15T05:00:56;63.33;;;24.35;;
60969;SDS011;46841;48.938;9.502;2022-12-15T05:03:39;62.40;;;24.35;;
60969;SDS011;46841;48.938;9.502;2022-12-15T05:06:24;63.42;;;24.02;;
60969;SDS011;46841;48.938;9.502;2022-12-15T05:09:07;61.58;;;24.85;;
60969;SDS011;46841;48.938;9.502;2022-12-15T05:11:51;72.57;;;28.30;;
60969;SDS011;46841;48.938;9.502;2022-12-15T05:14:35;79.47;;;29.08;;
60969;SDS011;46841;48.938;9.502;2022-12-15T05:17:19;69.75;;;27.25;;
60969;SDS011;46841;48.938;9.502;2022-12-15T05:20:03;69.18;;;27.13;;
60969;SDS011;46841;48.938;9.502;2022-12-15T05:22:51;74.07;;;27.98;;
60969;SDS011;46841;48.938;9.502;2022-12-15T05:25:35;65.93;;;26.65;;
60969;SDS011;46841;48.938;9.502;2022-12-15T05:28:19;68.72;;;26.15;;
60969;SDS011;46841;48.938;9.502;2022-12-15T05:31:04;65.80;;;27.35;;
60969;SDS011;46841;48.938;9.502;2022-12-15T05:33:48;65.13;;;26.13;;
60969;SDS011;46841;48.938;9.502;2022-12-15T05:36:13;69.70;;;26.92;;
60969;SDS011;46841;48.938;9.502;2022-12-15T05:38:38;76.65;;;28.60;;
60969;SDS011;46841;48.938;9.502;2022-12-15T05:41:04;68.93;;;27.75;;
60969;SDS011;46841;48.938;9.502;2022-12-15T05:43:29;68.00;;;26.42;;
60969;SDS011;46841;48.938;9.502;2022-12-15T05:46:01;68.32;;;26.83;;
60969;SDS011;46841;48.938;9.502;2022-12-15T05:48:26;70.90;;;27.63;;
60969;SDS011;46841;48.938;9.502;2022-12-15T05:50:51;75.85;;;27.58;;
60969;SDS011;46841;48.938;9.502;2022-12-15T05:53:17;71.10;;;25.45;;
60969;SDS011;46841;48.938;9.502;2022-12-15T05:55:42;68.60;;;26.15;;
60969;SDS011;46841;48.938;9.502;2022-12-15T05:58:07;67.38;;;25.98;;
60969;SDS011;46841;48.938;9.502;2022-12-15T06:00:33;73.63;;;26.67;;
60969;SDS011;46841;48.938;9.502;2022-12-15T06:02:58;68.05;;;25.20;;
60969;SDS011;46841;48.938;9.502;2022-12-15T06:05:23;64.82;;;25.08;;
60969;SDS011;46841;48.938;9.502;2022-12-15T06:07:49;66.28;;;25.40;;
60969;SDS011;46841;48.938;9.502;2022-12-15T06:10:14;64.78;;;24.73;;
60969;SDS011;46841;48.938;9.502;2022-12-15T06:12:39;64.35;;;25.52;;
60969;SDS011;46841;48.938;9.502;2022-12-15T06:15:05;65.13;;;25.30;;
60969;SDS011;46841;48.938;9.502;2022-12-15T06:17:30;71.18;;;27.00;;
60969;SDS011;46841;48.938;9.502;2022-12-15T06:19:56;68.53;;;26.60;;
60969;SDS011;46841;48.938;9.502;2022-12-15T06:22:21;67.93;;;27.50;;
60969;SDS011;46841;48.938;9.502;2022-12-15T06:24:46;69.22;;;27.00;;
60969;SDS011;46841;48.938;9.502;2022-12-15T06:27:11;63.17;;;27.15;;
60969;SDS011;46841;48.938;9.502;2022-12-15T06:29:37;65.00;;;27.05;;
60969;SDS011;46841;48.938;9.502;2022-12-15T06:32:02;75.20;;;29.95;;
60969;SDS011;46841;48.938;9.502;2022-12-15T06:34:28;70.63;;;28.88;;
60969;SDS011;46841;48.938;9.502;2022-12-15T06:36:53;73.57;;;29.00;;
60969;SDS011;46841;48.938;9.502;2022-12-15T06:39:19;72.80;;;28.13;;
60969;SDS011;46841;48.938;9.502;2022-12-15T06:41:44;78.75;;;30.27;;
60969;SDS011;46841;48.938;9.502;2022-12-15T06:44:13;77.93;;;28.20;;
60969;SDS011;46841;48.938;9.502;2022-12-15T06:46:39;70.40;;;28.60;;
60969;SDS011;46841;48.938;9.502;2022-12-15T06:49:04;76.10;;;30.35;;
60969;SDS011;46841;48.938;9.502;2022-12-15T06:51:30;78.18;;;31.02;;
60969;SDS011;46841;48.938;9.502;2022-12-15T06:53:56;77.50;;;29.42;;
60969;SDS011;46841;48.938;9.502;2022-12-15T06:56:23;74.65;;;29.75;;
60969;SDS011;46841;48.938;9.502;2022-12-15T06:58:48;75.68;;;27.88;;
60969;SDS011;46841;48.938;9.502;2022-12-15T07:01:14;62.40;;;25.92;;
60969;SDS011;46841;48.938;9.502;2022-12-15T07:03:40;78.63;;;29.23;;
60969;SDS011;46841;48.938;9.502;2022-12-15T07:06:06;75.30;;;29.75;;
60969;SDS011;46841;48.938;9.502;2022-12-15T07:08:32;73.80;;;28.75;;
60969;SDS011;46841;48.938;9.502;2022-12-15T07:10:58;73.15;;;28.17;;
60969;SDS011;46841;48.938;9.502;2022-12-15T07:13:23;68.75;;;25.77;;
60969;SDS011;46841;48.938;9.502;2022-12-15T07:15:49;68.53;;;28.60;;
60969;SDS011;46841;48.938;9.502;2022-12-15T07:18:15;75.78;;;28.83;;
60969;SDS011;46841;48.938;9.502;2022-12-15T07:20:41;74.28;;;28.00;;
60969;SDS011;46841;48.938;9.502;2022-12-15T07:23:06;76.22;;;29.42;;
60969;SDS011;46841;48.938;9.502;2022-12-15T07:25:36;72.28;;;28.48;;
60969;SDS011;46841;48.938;9.502;2022-12-15T07:28:02;60.80;;;25.38;;
60969;SDS011;46841;48.938;9.502;2022-12-15T07:30:27;72.43;;;29.25;;
60969;SDS011;46841;48.938;9.502;2022-12-15T07:32:52;69.53;;;28.67;;
60969;SDS011;46841;48.938;9.502;2022-12-15T07:35:18;70.40;;;28.85;;
60969;SDS011;46841;48.938;9.502;2022-12-15T07:37:43;70.53;;;26.67;;
60969;SDS011;46841;48.938;9.502;2022-12-15T07:40:08;64.90;;;27.45;;
60969;SDS011;46841;48.938;9.502;2022-12-15T07:42:34;68.40;;;26.98;;
60969;SDS011;46841;48.938;9.502;2022-12-15T07:44:59;65.35;;;27.55;;
60969;SDS011;46841;48.938;9.502;2022-12-15T07:47:25;66.05;;;27.02;;
60969;SDS011;46841;48.938;9.502;2022-12-15T07:49:52;69.38;;;26.73;;
60969;SDS011;46841;48.938;9.502;2022-12-15T07:52:17;68.00;;;27.13;;
60969;SDS011;46841;48.938;9.502;2022-12-15T07:54:42;71.13;;;27.75;;
60969;SDS011;46841;48.938;9.502;2022-12-15T07:57:08;68.03;;;27.05;;
60969;SDS011;46841;48.938;9.502;2022-12-15T07:59:33;72.63;;;27.77;;
60969;SDS011;46841;48.938;9.502;2022-12-15T08:01:58;69.68;;;28.67;;
60969;SDS011;46841;48.938;9.502;2022-12-15T08:04:25;68.93;;;26.98;;
60969;SDS011;46841;48.938;9.502;2022-12-15T08:06:52;69.95;;;27.60;;
60969;SDS011;46841;48.938;9.502;2022-12-15T08:09:17;61.60;;;26.35;;
60969;SDS011;46841;48.938;9.502;2022-12-15T08:11:43;59.60;;;25.98;;
60969;SDS011;46841;48.938;9.502;2022-12-15T08:14:08;59.75;;;25.80;;
60969;SDS011;46841;48.938;9.502;2022-12-15T08:16:33;59.88;;;25.40;;
60969;SDS011;46841;48.938;9.502;2022-12-15T08:19:00;72.97;;;26.73;;
60969;SDS011;46841;48.938;9.502;2022-12-15T08:21:25;65.22;;;27.05;;
60969;SDS011;46841;48.938;9.502;2022-12-15T08:23:51;70.78;;;27.98;;
60969;SDS011;46841;48.938;9.502;2022-12-15T08:26:17;65.30;;;26.45;;
60969;SDS011;46841;48.938;9.502;2022-12-15T08:28:43;61.50;;;26.10;;
60969;SDS011;46841;48.938;9.502;2022-12-15T08:31:09;64.68;;;27.65;;
60969;SDS011;46841;48.938;9.502;2022-12-15T08:33:35;64.77;;;27.90;;
60969;SDS011;46841;48.938;9.502;2022-12-15T08:36:02;69.78;;;27.48;;
60969;SDS011;46841;48.938;9.502;2022-12-15T08:38:28;59.38;;;26.48;;
60969;SDS011;46841;48.938;9.502;2022-12-15T08:40:53;71.57;;;28.52;;
60969;SDS011;46841;48.938;9.502;2022-12-15T08:43:18;63.28;;;26.73;;
60969;SDS011;46841;48.938;9.502;2022-12-15T08:45:44;68.22;;;28.65;;
60969;SDS011;46841;48.938;9.502;2022-12-15T08:48:09;60.50;;;27.88;;
60969;SDS011;46841;48.938;9.502;2022-12-15T08:50:34;61.40;;;27.05;;
60969;SDS011;46841;48.938;9.502;2022-12-15T08:53:00;65.15;;;29.63;;
60969;SDS011;46841;48.938;9.502;2022-12-15T08:55:25;66.00;;;28.35;;
60969;SDS011;46841;48.938;9.502;2022-12-15T08:57:52;62.55;;;27.27;;
60969;SDS011;46841;48.938;9.502;2022-12-15T09:00:18;72.32;;;30.70;;
60969;SDS011;46841;48.938;9.502;2022-12-15T09:02:43;81.90;;;33.92;;
60969;SDS011;46841;48.938;9.502;2022-12-15T09:05:08;69.70;;;29.27;;
60969;SDS011;46841;48.938;9.502;2022-12-15T09:07:34;62.13;;;27.15;;
60969;SDS011;46841;48.938;9.502;2022-12-15T09:09:59;64.60;;;26.95;;
60969;SDS011;46841;48.938;9.502;2022-12-15T09:12:25;63.72;;;27.38;;
60969;SDS011;46841;48.938;9.502;2022-12-15T09:14:50;63.97;;;26.73;;
60969;SDS011;46841;48.938;9.502;2022-12-15T09:17:15;65.05;;;27.10;;
60969;SDS011;46841;48.938;9.502;2022-12-15T09:19:41;60.78;;;26.60;;
60969;SDS011;46841;48.938;9.502;2022-12-15T09:22:06;61.42;;;26.95;;
60969;SDS011;46841;48.938;9.502;2022-12-15T09:24:32;56.05;;;25.30;;
60969;SDS011;46841;48.938;9.502;2022-12-15T09:26:57;54.35;;;24.60;;
60969;SDS011;46841;48.938;9.502;2022-12-15T09:29:22;59.15;;;25.95;;
60969;SDS011;46841;48.938;9.502;2022-12-15T09:31:48;55.03;;;26.65;;
60969;SDS011;46841;48.938;9.502;2022-12-15T09:34:14;64.80;;;27.05;;
60969;SDS011;46841;48.938;9.502;2022-12-15T09:36:40;57.95;;;26.17;;
60969;SDS011;46841;48.938;9.502;2022-12-15T09:39:06;56.55;;;25.17;;
60969;SDS011;46841;48.938;9.502;2022-12-15T09:41:32;59.90;;;24.75;;
60969;SDS011;46841;48.938;9.502;2022-12-15T09:48:53;60.35;;;26.98;;
60969;SDS011;46841;48.938;9.502;2022-12-15T09:51:19;54.38;;;24.55;;
60969;SDS011;46841;48.938;9.502;2022-12-15T09:53:49;59.90;;;25.80;;
60969;SDS011;46841;48.938;9.502;2022-12-15T09:56:19;56.53;;;26.73;;
60969;SDS011;46841;48.938;9.502;2022-12-15T09:58:52;53.33;;;24.52;;
60969;SDS011;46841;48.938;9.502;2022-12-15T10:03:55;55.33;;;26.02;;
60969;SDS011;46841;48.938;9.502;2022-12-15T10:06:38;59.83;;;26.45;;
60969;SDS011;46841;48.938;9.502;2022-12-15T10:09:12;62.13;;;26.40;;
60969;SDS011;46841;48.938;9.502;2022-12-15T10:19:30;56.38;;;27.02;;
60969;SDS011;46841;48.938;9.502;2022-12-15T10:21:58;84.18;;;34.05;;
60969;SDS011;46841;48.938;9.502;2022-12-15T10:24:23;61.65;;;27.15;;
60969;SDS011;46841;48.938;9.502;2022-12-15T10:26:55;65.57;;;30.08;;
60969;SDS011;46841;48.938;9.502;2022-12-15T10:31:55;57.85;;;27.67;;
60969;SDS011;46841;48.938;9.502;2022-12-15T10:34:33;60.25;;;25.23;;
60969;SDS011;46841;48.938;9.502;2022-12-15T10:37:00;54.70;;;26.20;;
60969;SDS011;46841;48.938;9.502;2022-12-15T10:39:39;52.05;;;24.85;;
60969;SDS011;46841;48.938;9.502;2022-12-15T10:44:43;53.17;;;24.42;;
60969;SDS011;46841;48.938;9.502;2022-12-15T10:47:10;59.58;;;25.98;;
60969;SDS011;46841;48.938;9.502;2022-12-15T10:49:36;59.08;;;26.60;;
60969;SDS011;46841;48.938;9.502;2022-12-15T10:52:01;59.17;;;26.70;;
60969;SDS011;46841;48.938;9.502;2022-12-15T10:54:29;55.60;;;24.45;;
60969;SDS011;46841;48.938;9.502;2022-12-15T10:56:59;56.08;;;24.90;;
60969;SDS011;46841;48.938;9.502;2022-12-15T10:59:31;60.20;;;25.77;;
60969;SDS011;46841;48.938;9.502;2022-12-15T11:04:41;67.03;;;29.70;;
60969;SDS011;46841;48.938;9.502;2022-12-15T11:07:18;63.72;;;28.77;;
60969;SDS011;46841;48.938;9.502;2022-12-15T11:09:43;65.57;;;28.42;;
60969;SDS011;46841;48.938;9.502;2022-12-15T11:12:15;63.88;;;28.77;;
60969;SDS011;46841;48.938;9.502;2022-12-15T11:14:59;57.15;;;26.25;;
60969;SDS011;46841;48.938;9.502;2022-12-15T11:17:24;59.58;;;25.88;;
60969;SDS011;46841;48.938;9.502;2022-12-15T11:19:59;57.00;;;25.20;;
60969;SDS011;46841;48.938;9.502;2022-12-15T11:22:45;56.33;;;25.45;;
60969;SDS011;46841;48.938;9.502;2022-12-15T11:25:30;58.35;;;25.52;;
60969;SDS011;46841;48.938;9.502;2022-12-15T11:27:56;53.25;;;25.27;;
60969;SDS011;46841;48.938;9.502;2022-12-15T11:30:24;60.05;;;26.60;;
60969;SDS011;46841;48.938;9.502;2022-12-15T11:32:52;60.08;;;26.90;;
60969;SDS011;46841;48.938;9.502;2022-12-15T11:35:25;57.70;;;25.45;;
60969;SDS011;46841;48.938;9.502;2022-12-15T11:38:01;62.25;;;25.75;;
60969;SDS011;46841;48.938;9.502;2022-12-15T11:40:41;53.38;;;23.45;;
60969;SDS011;46841;48.938;9.502;2022-12-15T11:49:26;56.35;;;23.95;;
60969;SDS011;46841;48.938;9.502;2022-12-15T11:54:00;57.30;;;24.58;;
60969;SDS011;46841;48.938;9.502;2022-12-15T12:04:52;58.00;;;23.88;;
60969;SDS011;46841;48.938;9.502;2022-12-15T12:07:27;50.40;;;22.48;;
60969;SDS011;46841;48.938;9.502;2022-12-15T12:12:46;58.50;;;24.10;;
60969;SDS011;46841;48.938;9.502;2022-12-15T12:15:31;59.97;;;25.60;;
60969;SDS011;46841;48.938;9.502;2022-12-15T12:18:00;58.53;;;25.17;;
60969;SDS011;46841;48.938;9.502;2022-12-15T12:20:33;57.33;;;25.63;;
60969;SDS011;46841;48.938;9.502;2022-12-15T12:25:26;55.42;;;25.50;;
60969;SDS011;46841;48.938;9.502;2022-12-15T12:30:22;60.15;;;26.45;;
60969;SDS011;46841;48.938;9.502;2022-12-15T12:40:04;65.30;;;27.70;;
60969;SDS011;46841;48.938;9.502;2022-12-15T12:51:04;59.75;;;25.13;;
60969;SDS011;46841;48.938;9.502;2022-12-15T12:53:32;54.67;;;23.67;;
60969;SDS011;46841;48.938;9.502;2022-12-15T12:55:58;51.90;;;23.33;;
60969;SDS011;46841;48.938;9.502;2022-12-15T12:58:33;52.63;;;23.85;;
60969;SDS011;46841;48.938;9.502;2022-12-15T13:01:05;51.50;;;23.15;;
60969;SDS011;46841;48.938;9.502;2022-12-15T13:03:31;51.20;;;23.13;;
60969;SDS011;46841;48.938;9.502;2022-12-15T13:05:56;50.88;;;23.63;;
60969;SDS011;46841;48.938;9.502;2022-12-15T13:08:26;54.63;;;24.38;;
60969;SDS011;46841;48.938;9.502;2022-12-15T13:10:51;52.40;;;23.85;;
60969;SDS011;46841;48.938;9.502;2022-12-15T13:15:47;51.10;;;23.02;;
60969;SDS011;46841;48.938;9.502;2022-12-15T13:18:17;61.05;;;27.23;;
60969;SDS011;46841;48.938;9.502;2022-12-15T13:20:43;50.53;;;22.80;;
60969;SDS011;46841;48.938;9.502;2022-12-15T13:26:29;49.95;;;22.60;;
60969;SDS011;46841;48.938;9.502;2022-12-15T13:31:10;47.17;;;21.52;;
60969;SDS011;46841;48.938;9.502;2022-12-15T13:38:57;48.75;;;22.60;;
60969;SDS011;46841;48.938;9.502;2022-12-15T13:41:23;52.40;;;23.13;;
60969;SDS011;46841;48.938;9.502;2022-12-15T13:43:48;45.63;;;22.20;;
60969;SDS011;46841;48.938;9.502;2022-12-15T13:46:16;45.42;;;21.05;;
60969;SDS011;46841;48.938;9.502;2022-12-15T13:48:45;43.60;;;22.00;;
60969;SDS011;46841;48.938;9.502;2022-12-15T13:51:16;50.03;;;25.80;;
60969;SDS011;46841;48.938;9.502;2022-12-15T13:53:49;60.90;;;30.05;;
60969;SDS011;46841;48.938;9.502;2022-12-15T13:56:24;48.15;;;23.05;;
60969;SDS011;46841;48.938;9.502;2022-12-15T13:58:58;47.25;;;22.55;;
60969;SDS011;46841;48.938;9.502;2022-12-15T14:01:28;47.95;;;23.35;;
60969;SDS011;46841;48.938;9.502;2022-12-15T14:04:10;40.22;;;20.10;;
60969;SDS011;46841;48.938;9.502;2022-12-15T14:06:45;45.50;;;21.85;;
60969;SDS011;46841;48.938;9.502;2022-12-15T14:09:11;43.58;;;20.77;;
60969;SDS011;46841;48.938;9.502;2022-12-15T14:14:03;48.80;;;22.93;;
60969;SDS011;46841;48.938;9.502;2022-12-15T14:16:30;41.22;;;19.40;;
60969;SDS011;46841;48.938;9.502;2022-12-15T14:19:13;51.75;;;24.50;;
60969;SDS011;46841;48.938;9.502;2022-12-15T14:21:39;53.15;;;20.85;;
60969;SDS011;46841;48.938;9.502;2022-12-15T14:26:59;50.08;;;21.35;;
60969;SDS011;46841;48.938;9.502;2022-12-15T14:29:25;44.45;;;20.50;;
60969;SDS011;46841;48.938;9.502;2022-12-15T14:31:52;43.38;;;21.17;;
60969;SDS011;46841;48.938;9.502;2022-12-15T14:34:28;42.22;;;19.73;;
60969;SDS011;46841;48.938;9.502;2022-12-15T14:36:55;45.13;;;20.48;;
60969;SDS011;46841;48.938;9.502;2022-12-15T14:39:35;43.70;;;19.08;;
60969;SDS011;46841;48.938;9.502;2022-12-15T14:42:02;39.13;;;19.08;;
60969;SDS011;46841;48.938;9.502;2022-12-15T14:44:37;39.88;;;20.20;;
60969;SDS011;46841;48.938;9.502;2022-12-15T14:47:04;43.53;;;19.35;;
60969;SDS011;46841;48.938;9.502;2022-12-15T14:49:32;43.30;;;19.38;;
60969;SDS011;46841;48.938;9.502;2022-12-15T14:52:01;43.83;;;20.00;;
60969;SDS011;46841;48.938;9.502;2022-12-15T14:54:38;44.58;;;20.65;;
60969;SDS011;46841;48.938;9.502;2022-12-15T14:57:20;39.17;;;17.67;;
60969;SDS011;46841;48.938;9.502;2022-12-15T14:59:45;43.25;;;18.58;;
60969;SDS011;46841;48.938;9.502;2022-12-15T15:02:28;47.08;;;19.73;;
60969;SDS011;46841;48.938;9.502;2022-12-15T15:04:58;42.65;;;19.27;;
60969;SDS011;46841;48.938;9.502;2022-12-15T15:07:31;46.25;;;18.48;;
60969;SDS011;46841;48.938;9.502;2022-12-15T15:09:58;47.25;;;21.13;;
60969;SDS011;46841;48.938;9.502;2022-12-15T15:12:39;40.67;;;18.95;;
60969;SDS011;46841;48.938;9.502;2022-12-15T15:15:05;44.60;;;20.02;;
60969;SDS011;46841;48.938;9.502;2022-12-15T15:17:34;43.38;;;20.10;;
60969;SDS011;46841;48.938;9.502;2022-12-15T15:20:00;45.53;;;21.30;;
60969;SDS011;46841;48.938;9.502;2022-12-15T15:25:01;48.85;;;21.95;;
60969;SDS011;46841;48.938;9.502;2022-12-15T15:27:37;44.45;;;20.85;;
60969;SDS011;46841;48.938;9.502;2022-12-15T15:30:13;48.45;;;22.02;;
60969;SDS011;46841;48.938;9.502;2022-12-15T15:32:48;40.10;;;20.15;;
60969;SDS011;46841;48.938;9.502;2022-12-15T15:35:14;43.67;;;21.52;;
60969;SDS011;46841;48.938;9.502;2022-12-15T15:37:40;50.28;;;20.98;;
60969;SDS011;46841;48.938;9.502;2022-12-15T15:40:05;45.83;;;20.83;;
60969;SDS011;46841;48.938;9.502;2022-12-15T15:42:34;48.67;;;22.42;;
60969;SDS011;46841;48.938;9.502;2022-12-15T15:44:59;45.65;;;22.52;;
60969;SDS011;46841;48.938;9.502;2022-12-15T15:47:25;51.92;;;22.00;;
60969;SDS011;46841;48.938;9.502;2022-12-15T15:49:51;46.35;;;20.92;;
60969;SDS011;46841;48.938;9.502;2022-12-15T15:52:17;50.70;;;22.57;;
60969;SDS011;46841;48.938;9.502;2022-12-15T15:54:42;46.17;;;20.92;;
60969;SDS011;46841;48.938;9.502;2022-12-15T15:57:15;49.38;;;22.20;;
60969;SDS011;46841;48.938;9.502;2022-12-15T15:59:41;43.92;;;19.90;;
60969;SDS011;46841;48.938;9.502;2022-12-15T16:04:33;44.90;;;20.07;;
60969;SDS011;46841;48.938;9.502;2022-12-15T16:07:01;48.58;;;21.75;;
60969;SDS011;46841;48.938;9.502;2022-12-15T16:09:27;49.85;;;21.00;;
60969;SDS011;46841;48.938;9.502;2022-12-15T16:11:53;51.10;;;21.67;;
60969;SDS011;46841;48.938;9.502;2022-12-15T16:14:18;51.17;;;22.65;;
60969;SDS011;46841;48.938;9.502;2022-12-15T16:16:43;47.63;;;21.85;;
60969;SDS011;46841;48.938;9.502;2022-12-15T16:19:09;50.45;;;21.77;;
60969;SDS011;46841;48.938;9.502;2022-12-15T16:21:36;42.90;;;20.25;;
60969;SDS011;46841;48.938;9.502;2022-12-15T16:24:04;55.97;;;22.77;;
60969;SDS011;46841;48.938;9.502;2022-12-15T16:26:32;51.55;;;22.02;;
60969;SDS011;46841;48.938;9.502;2022-12-15T16:28:58;53.08;;;22.77;;
60969;SDS011;46841;48.938;9.502;2022-12-15T16:31:30;49.28;;;20.33;;
60969;SDS011;46841;48.938;9.502;2022-12-15T16:33:56;42.17;;;19.42;;
60969;SDS011;46841;48.938;9.502;2022-12-15T16:36:21;55.88;;;26.65;;